sensor_id;sensor_type;location;lat;lon;timestamp;pressure;altitude;pressure_sealevel;temperature;humidity
75424;BME280;64005;55.160;36.002;2023-11-22T00:02:30;99228.63;;;-9.28;73.27
75424;BME280;64005;55.160;36.002;2023-11-22T00:04:57;99234.84;;;-9.28;73.24
75424;BME280;64005;55.160;36.002;2023-11-22T00:07:24;99229.44;;;-9.28;73.29
75424;BME280;64005;55.160;36.002;2023-11-22T00:09:54;99230.91;;;-9.25;73.33
75424;BME280;64005;55.160;36.002;2023-11-22T00:12:23;99231.94;;;-9.26;73.42
75424;BME280;64005;55.160;36.002;2023-11-22T00:14:51;99236.31;;;-9.25;73.24
75424;BME280;64005;55.160;36.002;2023-11-22T00:17:18;99232.34;;;-9.23;73.46
75424;BME280;64005;55.160;36.002;2023-11-22T00:19:53;99227.41;;;-9.19;73.42
75424;BME280;64005;55.160;36.002;2023-11-22T00:22:20;99221.81;;;-9.17;73.46
75424;BME280;64005;55.160;36.002;2023-11-22T00:27:24;99211.44;;;-9.14;73.41
75424;BME280;64005;55.160;36.002;2023-11-22T00:29:53;99221.59;;;-9.09;73.47
75424;BME280;64005;55.160;36.002;2023-11-22T00:32:21;99222.25;;;-9.07;73.41
75424;BME280;64005;55.160;36.002;2023-11-22T00:34:48;99217.47;;;-9.05;73.49
75424;BME280;64005;55.160;36.002;2023-11-22T00:37:15;99222.63;;;-9.04;73.40
75424;BME280;64005;55.160;36.002;2023-11-22T00:42:18;99219.34;;;-9.06;73.30
75424;BME280;64005;55.160;36.002;2023-11-22T00:44:47;99210.22;;;-9.11;73.38
75424;BME280;64005;55.160;36.002;2023-11-22T00:47:15;99223.06;;;-9.07;73.42
75424;BME280;64005;55.160;36.002;2023-11-22T00:49:55;99228.47;;;-9.07;73.34
75424;BME280;64005;55.160;36.002;2023-11-22T00:52:32;99215.63;;;-9.05;73.28
75424;BME280;64005;55.160;36.002;2023-11-22T00:55:14;99224.31;;;-9.03;73.34
75424;BME280;64005;55.160;36.002;2023-11-22T00:57:41;99223.47;;;-9.03;73.45
75424;BME280;64005;55.160;36.002;2023-11-22T01:00:11;99232.38;;;-9.03;73.43
75424;BME280;64005;55.160;36.002;2023-11-22T01:02:48;99225.13;;;-9.02;73.41
75424;BME280;64005;55.160;36.002;2023-11-22T01:05:16;99225.78;;;-9.00;73.50
75424;BME280;64005;55.160;36.002;2023-11-22T01:07:43;99218.31;;;-8.98;73.46
75424;BME280;64005;55.160;36.002;2023-11-22T01:10:10;99225.34;;;-8.97;73.27
75424;BME280;64005;55.160;36.002;2023-11-22T01:12:37;99222.03;;;-8.99;73.45
75424;BME280;64005;55.160;36.002;2023-11-22T01:15:06;99227.25;;;-8.98;73.49
75424;BME280;64005;55.160;36.002;2023-11-22T01:18:03;99227.84;;;-8.96;73.66
75424;BME280;64005;55.160;36.002;2023-11-22T01:20:30;99234.69;;;-8.93;73.34
75424;BME280;64005;55.160;36.002;2023-11-22T01:23:00;99236.56;;;-8.94;73.51
75424;BME280;64005;55.160;36.002;2023-11-22T01:25:27;99223.91;;;-8.93;73.38
75424;BME280;64005;55.160;36.002;2023-11-22T01:28:03;99227.25;;;-8.91;73.46
75424;BME280;64005;55.160;36.002;2023-11-22T01:30:30;99223.72;;;-8.92;73.70
75424;BME280;64005;55.160;36.002;2023-11-22T01:32:57;99225.16;;;-8.89;73.56
75424;BME280;64005;55.160;36.002;2023-11-22T01:35:26;99214.19;;;-8.88;73.49
75424;BME280;64005;55.160;36.002;2023-11-22T01:38:27;99229.94;;;-8.85;73.56
75424;BME280;64005;55.160;36.002;2023-11-22T01:41:04;99225.16;;;-8.82;73.63
75424;BME280;64005;55.160;36.002;2023-11-22T01:43:31;99229.53;;;-8.81;73.54
75424;BME280;64005;55.160;36.002;2023-11-22T01:49:17;99232.84;;;-8.79;73.53
75424;BME280;64005;55.160;36.002;2023-11-22T01:51:46;99225.78;;;-8.80;73.48
75424;BME280;64005;55.160;36.002;2023-11-22T01:54:13;99228.50;;;-8.80;73.36
75424;BME280;64005;55.160;36.002;2023-11-22T01:56:41;99231.00;;;-8.79;73.49
75424;BME280;64005;55.160;36.002;2023-11-22T01:59:08;99228.09;;;-8.77;73.46
75424;BME280;64005;55.160;36.002;2023-11-22T02:01:36;99224.56;;;-8.78;73.50
75424;BME280;64005;55.160;36.002;2023-11-22T02:04:03;99220.00;;;-8.77;73.49
75424;BME280;64005;55.160;36.002;2023-11-22T02:06:47;99224.13;;;-8.75;73.57
75424;BME280;64005;55.160;36.002;2023-11-22T02:09:28;99220.59;;;-8.75;73.52
75424;BME280;64005;55.160;36.002;2023-11-22T02:11:56;99222.91;;;-8.72;73.77
75424;BME280;64005;55.160;36.002;2023-11-22T02:14:44;99221.88;;;-8.71;73.68
75424;BME280;64005;55.160;36.002;2023-11-22T02:17:12;99224.34;;;-8.70;73.72
75424;BME280;64005;55.160;36.002;2023-11-22T02:19:39;99224.13;;;-8.68;73.67
75424;BME280;64005;55.160;36.002;2023-11-22T02:22:07;99221.25;;;-8.67;73.50
75424;BME280;64005;55.160;36.002;2023-11-22T02:24:36;99213.53;;;-8.63;73.67
75424;BME280;64005;55.160;36.002;2023-11-22T02:27:03;99211.69;;;-8.63;73.67
75424;BME280;64005;55.160;36.002;2023-11-22T02:34:42;99210.66;;;-8.62;73.67
75424;BME280;64005;55.160;36.002;2023-11-22T02:43:40;99212.13;;;-8.66;73.73
75424;BME280;64005;55.160;36.002;2023-11-22T02:46:20;99221.03;;;-8.65;73.72
75424;BME280;64005;55.160;36.002;2023-11-22T02:51:54;99217.91;;;-8.62;73.59
75424;BME280;64005;55.160;36.002;2023-11-22T02:54:21;99204.44;;;-8.62;73.56
75424;BME280;64005;55.160;36.002;2023-11-22T02:57:02;99208.78;;;-8.61;73.67
75424;BME280;64005;55.160;36.002;2023-11-22T02:59:31;99209.63;;;-8.61;73.81
75424;BME280;64005;55.160;36.002;2023-11-22T03:01:58;99214.19;;;-8.61;73.54
75424;BME280;64005;55.160;36.002;2023-11-22T03:04:25;99209.41;;;-8.59;73.71
75424;BME280;64005;55.160;36.002;2023-11-22T03:06:52;99215.41;;;-8.57;73.91
75424;BME280;64005;55.160;36.002;2023-11-22T03:09:31;99213.34;;;-8.55;73.82
75424;BME280;64005;55.160;36.002;2023-11-22T03:11:58;99218.34;;;-8.52;73.94
75424;BME280;64005;55.160;36.002;2023-11-22T03:14:25;99211.91;;;-8.51;73.91
75424;BME280;64005;55.160;36.002;2023-11-22T03:16:55;99202.16;;;-8.52;73.68
75424;BME280;64005;55.160;36.002;2023-11-22T03:27:09;99214.59;;;-8.51;73.78
75424;BME280;64005;55.160;36.002;2023-11-22T03:29:37;99213.13;;;-8.47;73.74
75424;BME280;64005;55.160;36.002;2023-11-22T03:32:28;99218.34;;;-8.46;73.98
75424;BME280;64005;55.160;36.002;2023-11-22T03:34:56;99218.34;;;-8.46;73.92
75424;BME280;64005;55.160;36.002;2023-11-22T03:37:23;99211.28;;;-8.47;74.23
75424;BME280;64005;55.160;36.002;2023-11-22T03:39:50;99218.34;;;-8.46;73.85
75424;BME280;64005;55.160;36.002;2023-11-22T03:42:19;99208.13;;;-8.44;73.74
75424;BME280;64005;55.160;36.002;2023-11-22T03:44:46;99218.72;;;-8.42;73.85
75424;BME280;64005;55.160;36.002;2023-11-22T03:47:15;99224.94;;;-8.41;74.05
75424;BME280;64005;55.160;36.002;2023-11-22T03:50:10;99219.38;;;-8.47;73.83
75424;BME280;64005;55.160;36.002;2023-11-22T03:52:37;99236.78;;;-8.49;73.71
75424;BME280;64005;55.160;36.002;2023-11-22T03:55:05;99241.56;;;-8.51;73.83
75424;BME280;64005;55.160;36.002;2023-11-22T04:00:24;99235.56;;;-8.53;73.49
75424;BME280;64005;55.160;36.002;2023-11-22T04:02:51;99234.53;;;-8.59;73.60
75424;BME280;64005;55.160;36.002;2023-11-22T04:05:22;99234.91;;;-8.62;73.66
75424;BME280;64005;55.160;36.002;2023-11-22T04:07:49;99235.75;;;-8.68;73.41
75424;BME280;64005;55.160;36.002;2023-11-22T04:10:17;99235.94;;;-8.69;73.47
75424;BME280;64005;55.160;36.002;2023-11-22T04:12:44;99242.59;;;-8.72;73.61
75424;BME280;64005;55.160;36.002;2023-11-22T04:15:13;99240.31;;;-8.75;73.57
75424;BME280;64005;55.160;36.002;2023-11-22T04:17:40;99241.75;;;-8.79;73.52
75424;BME280;64005;55.160;36.002;2023-11-22T04:20:08;99240.94;;;-8.79;73.15
75424;BME280;64005;55.160;36.002;2023-11-22T04:22:37;99242.38;;;-8.84;73.55
75424;BME280;64005;55.160;36.002;2023-11-22T04:25:05;99246.91;;;-8.84;73.51
75424;BME280;64005;55.160;36.002;2023-11-22T04:27:32;99244.66;;;-8.87;73.57
75424;BME280;64005;55.160;36.002;2023-11-22T04:30:00;99248.81;;;-8.85;73.52
75424;BME280;64005;55.160;36.002;2023-11-22T04:32:28;99246.91;;;-8.84;73.49
75424;BME280;64005;55.160;36.002;2023-11-22T04:34:55;99246.91;;;-8.84;73.44
75424;BME280;64005;55.160;36.002;2023-11-22T04:37:22;99253.38;;;-8.85;73.41
75424;BME280;64005;55.160;36.002;2023-11-22T04:39:53;99248.19;;;-8.87;73.33
75424;BME280;64005;55.160;36.002;2023-11-22T04:42:21;99250.03;;;-8.87;73.48
75424;BME280;64005;55.160;36.002;2023-11-22T04:44:49;99250.44;;;-8.90;73.54
75424;BME280;64005;55.160;36.002;2023-11-22T04:47:16;99253.38;;;-8.92;73.54
75424;BME280;64005;55.160;36.002;2023-11-22T04:49:43;99256.91;;;-8.91;73.52
75424;BME280;64005;55.160;36.002;2023-11-22T04:52:10;99257.94;;;-8.92;73.40
75424;BME280;64005;55.160;36.002;2023-11-22T04:54:37;99258.13;;;-8.94;73.70
75424;BME280;64005;55.160;36.002;2023-11-22T04:57:06;99261.44;;;-8.92;73.70
75424;BME280;64005;55.160;36.002;2023-11-22T04:59:33;99258.75;;;-8.92;73.53
75424;BME280;64005;55.160;36.002;2023-11-22T05:02:00;99269.53;;;-8.92;73.72
75424;BME280;64005;55.160;36.002;2023-11-22T05:04:27;99264.16;;;-8.92;73.61
75424;BME280;64005;55.160;36.002;2023-11-22T05:07:17;99270.56;;;-8.93;73.35
75424;BME280;64005;55.160;36.002;2023-11-22T05:09:57;99270.56;;;-8.93;73.70
75424;BME280;64005;55.160;36.002;2023-11-22T05:12:26;99272.44;;;-8.93;73.60
75424;BME280;64005;55.160;36.002;2023-11-22T05:14:53;99265.78;;;-8.91;73.58
75424;BME280;64005;55.160;36.002;2023-11-22T05:17:20;99274.69;;;-8.90;73.55
75424;BME280;64005;55.160;36.002;2023-11-22T05:19:47;99270.97;;;-8.89;73.43
75424;BME280;64005;55.160;36.002;2023-11-22T05:22:14;99267.44;;;-8.90;73.66
75424;BME280;64005;55.160;36.002;2023-11-22T05:24:41;99264.75;;;-8.90;73.47
75424;BME280;64005;55.160;36.002;2023-11-22T05:27:08;99262.28;;;-8.91;73.59
75424;BME280;64005;55.160;36.002;2023-11-22T05:29:37;99270.97;;;-8.89;73.63
75424;BME280;64005;55.160;36.002;2023-11-22T05:32:05;99268.28;;;-8.89;73.71
75424;BME280;64005;55.160;36.002;2023-11-22T05:34:32;99268.09;;;-8.88;73.71
75424;BME280;64005;55.160;36.002;2023-11-22T05:36:59;99272.44;;;-8.87;73.65
75424;BME280;64005;55.160;36.002;2023-11-22T05:39:26;99273.88;;;-8.84;73.69
75424;BME280;64005;55.160;36.002;2023-11-22T05:41:54;99274.50;;;-8.82;73.63
75424;BME280;64005;55.160;36.002;2023-11-22T05:44:22;99277.66;;;-8.78;73.85
75424;BME280;64005;55.160;36.002;2023-11-22T05:47:00;99281.78;;;-8.76;73.64
75424;BME280;64005;55.160;36.002;2023-11-22T05:49:47;99285.31;;;-8.75;73.67
75424;BME280;64005;55.160;36.002;2023-11-22T05:52:14;99271.81;;;-8.75;73.64
75424;BME280;64005;55.160;36.002;2023-11-22T05:54:41;99289.47;;;-8.73;73.67
75424;BME280;64005;55.160;36.002;2023-11-22T05:57:16;99277.84;;;-8.73;73.87
75424;BME280;64005;55.160;36.002;2023-11-22T05:59:57;99277.66;;;-8.72;73.51
75424;BME280;64005;55.160;36.002;2023-11-22T06:02:39;99287.19;;;-8.69;73.79
75424;BME280;64005;55.160;36.002;2023-11-22T06:05:07;99283.44;;;-8.68;73.55
75424;BME280;64005;55.160;36.002;2023-11-22T06:07:35;99283.88;;;-8.65;73.79
75424;BME280;64005;55.160;36.002;2023-11-22T06:10:02;99278.25;;;-8.63;73.68
75424;BME280;64005;55.160;36.002;2023-11-22T06:12:30;99284.47;;;-8.63;73.58
75424;BME280;64005;55.160;36.002;2023-11-22T06:15:12;99278.91;;;-8.61;73.53
75424;BME280;64005;55.160;36.002;2023-11-22T06:17:40;99277.88;;;-8.60;73.74
75424;BME280;64005;55.160;36.002;2023-11-22T06:20:08;99280.97;;;-8.57;73.91
75424;BME280;64005;55.160;36.002;2023-11-22T06:22:36;99286.78;;;-8.53;73.90
75424;BME280;64005;55.160;36.002;2023-11-22T06:25:07;99293.41;;;-8.49;73.84
75424;BME280;64005;55.160;36.002;2023-11-22T06:27:35;99300.06;;;-8.45;73.93
75424;BME280;64005;55.160;36.002;2023-11-22T06:30:02;99290.91;;;-8.44;73.85
75424;BME280;64005;55.160;36.002;2023-11-22T06:32:31;99295.91;;;-8.41;73.87
75424;BME280;64005;55.160;36.002;2023-11-22T06:34:59;99299.25;;;-8.39;73.93
75424;BME280;64005;55.160;36.002;2023-11-22T06:37:26;99293.63;;;-8.37;74.02
75424;BME280;64005;55.160;36.002;2023-11-22T06:40:29;99291.34;;;-8.34;74.09
75424;BME280;64005;55.160;36.002;2023-11-22T06:42:57;99294.44;;;-8.30;74.06
75424;BME280;64005;55.160;36.002;2023-11-22T06:45:25;99294.03;;;-8.27;73.92
75424;BME280;64005;55.160;36.002;2023-11-22T06:47:52;99300.66;;;-8.23;73.90
75424;BME280;64005;55.160;36.002;2023-11-22T06:50:20;99306.69;;;-8.21;74.18
75424;BME280;64005;55.160;36.002;2023-11-22T06:52:49;99295.69;;;-8.20;73.89
75424;BME280;64005;55.160;36.002;2023-11-22T06:55:19;99308.97;;;-8.18;73.87
75424;BME280;64005;55.160;36.002;2023-11-22T06:57:57;99312.69;;;-8.19;73.74
75424;BME280;64005;55.160;36.002;2023-11-22T07:00:24;99310.84;;;-8.19;74.11
75424;BME280;64005;55.160;36.002;2023-11-22T07:02:53;99313.09;;;-8.16;73.88
75424;BME280;64005;55.160;36.002;2023-11-22T07:05:21;99311.88;;;-8.13;73.90
75424;BME280;64005;55.160;36.002;2023-11-22T07:07:50;99316.84;;;-8.10;73.97
75424;BME280;64005;55.160;36.002;2023-11-22T07:10:32;99317.47;;;-8.08;73.85
75424;BME280;64005;55.160;36.002;2023-11-22T07:13:19;99316.44;;;-8.07;74.11
75424;BME280;64005;55.160;36.002;2023-11-22T07:15:46;99312.25;;;-8.03;73.91
75424;BME280;64005;55.160;36.002;2023-11-22T07:18:13;99329.28;;;-8.03;73.63
75424;BME280;64005;55.160;36.002;2023-11-22T07:20:42;99331.97;;;-8.03;73.79
75424;BME280;64005;55.160;36.002;2023-11-22T07:23:10;99329.09;;;-8.01;74.02
75424;BME280;64005;55.160;36.002;2023-11-22T07:25:40;99334.88;;;-7.97;73.98
75424;BME280;64005;55.160;36.002;2023-11-22T07:28:25;99327.22;;;-7.94;74.37
75424;BME280;64005;55.160;36.002;2023-11-22T07:30:59;99327.41;;;-7.89;74.07
75424;BME280;64005;55.160;36.002;2023-11-22T07:33:38;99327.00;;;-7.86;74.10
75424;BME280;64005;55.160;36.002;2023-11-22T07:36:25;99328.66;;;-7.85;73.88
75424;BME280;64005;55.160;36.002;2023-11-22T07:38:53;99326.56;;;-7.83;74.08
75424;BME280;64005;55.160;36.002;2023-11-22T07:41:20;99334.25;;;-7.80;73.89
75424;BME280;64005;55.160;36.002;2023-11-22T07:43:48;99343.19;;;-7.79;74.13
75424;BME280;64005;55.160;36.002;2023-11-22T07:46:15;99339.03;;;-7.82;73.64
75424;BME280;64005;55.160;36.002;2023-11-22T07:48:43;99350.03;;;-7.83;73.98
75424;BME280;64005;55.160;36.002;2023-11-22T07:51:13;99339.22;;;-7.83;73.72
75424;BME280;64005;55.160;36.002;2023-11-22T07:53:42;99339.03;;;-7.82;73.84
75424;BME280;64005;55.160;36.002;2023-11-22T07:56:11;99345.06;;;-7.80;73.63
75424;BME280;64005;55.160;36.002;2023-11-22T07:58:45;99344.84;;;-7.78;73.76
75424;BME280;64005;55.160;36.002;2023-11-22T08:01:14;99343.78;;;-7.77;73.75
75424;BME280;64005;55.160;36.002;2023-11-22T08:03:41;99345.88;;;-7.73;74.04
75424;BME280;64005;55.160;36.002;2023-11-22T08:09:11;99340.28;;;-7.71;73.55
75424;BME280;64005;55.160;36.002;2023-11-22T08:11:39;99345.44;;;-7.70;73.75
75424;BME280;64005;55.160;36.002;2023-11-22T08:14:06;99355.84;;;-7.67;73.71
75424;BME280;64005;55.160;36.002;2023-11-22T08:16:49;99354.38;;;-7.69;73.27
75424;BME280;64005;55.160;36.002;2023-11-22T08:19:17;99368.72;;;-7.69;73.45
75424;BME280;64005;55.160;36.002;2023-11-22T08:21:44;99357.06;;;-7.69;73.59
75424;BME280;64005;55.160;36.002;2023-11-22T08:24:21;99357.06;;;-7.69;73.32
75424;BME280;64005;55.160;36.002;2023-11-22T08:26:50;99355.84;;;-7.67;73.84
75424;BME280;64005;55.160;36.002;2023-11-22T08:50:01;99346.50;;;-7.77;73.46
75424;BME280;64005;55.160;36.002;2023-11-22T08:52:30;99352.53;;;-7.75;73.46
75424;BME280;64005;55.160;36.002;2023-11-22T08:54:57;99350.66;;;-7.75;73.56
75424;BME280;64005;55.160;36.002;2023-11-22T08:57:26;99357.91;;;-7.75;73.41
75424;BME280;64005;55.160;36.002;2023-11-22T09:00:28;99350.44;;;-7.73;73.40
75424;BME280;64005;55.160;36.002;2023-11-22T09:03:11;99362.47;;;-7.69;73.22
75424;BME280;64005;55.160;36.002;2023-11-22T09:06:17;99355.00;;;-7.67;73.03
75424;BME280;64005;55.160;36.002;2023-11-22T09:08:50;99354.81;;;-7.66;73.35
75424;BME280;64005;55.160;36.002;2023-11-22T09:11:23;99357.50;;;-7.66;73.32
75424;BME280;64005;55.160;36.002;2023-11-22T09:13:50;99356.03;;;-7.62;73.48
75424;BME280;64005;55.160;36.002;2023-11-22T09:16:19;99358.09;;;-7.57;73.27
75424;BME280;64005;55.160;36.002;2023-11-22T09:18:49;99350.81;;;-7.56;73.13
75424;BME280;64005;55.160;36.002;2023-11-22T09:21:27;99350.00;;;-7.57;73.32
75424;BME280;64005;55.160;36.002;2023-11-22T09:23:54;99354.16;;;-7.54;73.02
75424;BME280;64005;55.160;36.002;2023-11-22T09:26:21;99351.84;;;-7.51;73.19
75424;BME280;64005;55.160;36.002;2023-11-22T09:33:59;99363.25;;;-7.42;73.17
75424;BME280;64005;55.160;36.002;2023-11-22T09:36:29;99352.44;;;-7.42;73.45
75424;BME280;64005;55.160;36.002;2023-11-22T09:39:21;99356.81;;;-7.41;72.97
75424;BME280;64005;55.160;36.002;2023-11-22T09:45:19;99354.94;;;-7.41;72.97
75424;BME280;64005;55.160;36.002;2023-11-22T09:47:58;99354.13;;;-7.41;73.21
75424;BME280;64005;55.160;36.002;2023-11-22T09:50:50;99372.19;;;-7.42;72.86
75424;BME280;64005;55.160;36.002;2023-11-22T09:53:55;99364.53;;;-7.45;73.04
75424;BME280;64005;55.160;36.002;2023-11-22T09:56:24;99370.53;;;-7.43;72.79
75424;BME280;64005;55.160;36.002;2023-11-22T09:58:55;99364.28;;;-7.43;73.00
75424;BME280;64005;55.160;36.002;2023-11-22T10:05:19;99367.00;;;-7.50;72.97
75424;BME280;64005;55.160;36.002;2023-11-22T10:07:47;99354.53;;;-7.51;72.87
75424;BME280;64005;55.160;36.002;2023-11-22T10:10:24;99351.25;;;-7.53;72.78
75424;BME280;64005;55.160;36.002;2023-11-22T10:12:54;99342.94;;;-7.51;72.60
75424;BME280;64005;55.160;36.002;2023-11-22T10:15:36;99340.63;;;-7.48;72.83
75424;BME280;64005;55.160;36.002;2023-11-22T10:21:22;99354.97;;;-7.54;72.59
75424;BME280;64005;55.160;36.002;2023-11-22T10:23:50;99357.66;;;-7.47;72.51
75424;BME280;64005;55.160;36.002;2023-11-22T10:26:19;99349.34;;;-7.46;72.77
75424;BME280;64005;55.160;36.002;2023-11-22T10:28:50;99356.63;;;-7.46;72.46
75424;BME280;64005;55.160;36.002;2023-11-22T10:31:18;99347.91;;;-7.48;72.28
75424;BME280;64005;55.160;36.002;2023-11-22T10:33:47;99358.50;;;-7.47;72.57
75424;BME280;64005;55.160;36.002;2023-11-22T10:36:15;99357.66;;;-7.47;72.44
75424;BME280;64005;55.160;36.002;2023-11-22T10:38:46;99354.75;;;-7.46;72.44
75424;BME280;64005;55.160;36.002;2023-11-22T10:44:32;99354.94;;;-7.41;72.64
75424;BME280;64005;55.160;36.002;2023-11-22T10:47:28;99355.16;;;-7.42;72.43
75424;BME280;64005;55.160;36.002;2023-11-22T10:49:56;99351.63;;;-7.43;72.17
75424;BME280;64005;55.160;36.002;2023-11-22T10:52:27;99354.13;;;-7.41;72.42
75424;BME280;64005;55.160;36.002;2023-11-22T10:55:02;99350.16;;;-7.39;72.40
75424;BME280;64005;55.160;36.002;2023-11-22T11:03:56;99347.72;;;-7.60;72.25
75424;BME280;64005;55.160;36.002;2023-11-22T11:06:37;99354.56;;;-7.57;72.32
75424;BME280;64005;55.160;36.002;2023-11-22T11:09:05;99344.00;;;-7.59;72.00
75424;BME280;64005;55.160;36.002;2023-11-22T11:16:46;99339.41;;;-7.58;72.45
75424;BME280;64005;55.160;36.002;2023-11-22T11:28:59;99356.66;;;-7.53;72.07
75424;BME280;64005;55.160;36.002;2023-11-22T11:31:45;99356.22;;;-7.56;71.91
75424;BME280;64005;55.160;36.002;2023-11-22T11:34:17;99353.97;;;-7.59;72.18
75424;BME280;64005;55.160;36.002;2023-11-22T11:36:44;99350.22;;;-7.65;71.82
75424;BME280;64005;55.160;36.002;2023-11-22T11:39:26;99352.69;;;-7.64;72.25
75424;BME280;64005;55.160;36.002;2023-11-22T11:42:13;99345.88;;;-7.66;72.29
75424;BME280;64005;55.160;36.002;2023-11-22T11:45:10;99354.81;;;-7.66;71.78
75424;BME280;64005;55.160;36.002;2023-11-22T11:47:43;99340.03;;;-7.63;72.12
75424;BME280;64005;55.160;36.002;2023-11-22T11:50:11;99343.34;;;-7.61;71.98
75424;BME280;64005;55.160;36.002;2023-11-22T11:52:39;99336.72;;;-7.58;72.13
75424;BME280;64005;55.160;36.002;2023-11-22T11:55:28;99336.72;;;-7.58;72.07
75424;BME280;64005;55.160;36.002;2023-11-22T11:57:56;99345.03;;;-7.60;71.87
75424;BME280;64005;55.160;36.002;2023-11-22T12:00:26;99339.19;;;-7.64;72.11
75424;BME280;64005;55.160;36.002;2023-11-22T12:05:49;99346.47;;;-7.71;72.10
75424;BME280;64005;55.160;36.002;2023-11-22T12:08:17;99350.63;;;-7.68;71.81
75424;BME280;64005;55.160;36.002;2023-11-22T12:10:45;99339.22;;;-7.70;72.01
75424;BME280;64005;55.160;36.002;2023-11-22T12:13:17;99349.81;;;-7.69;71.56
75424;BME280;64005;55.160;36.002;2023-11-22T12:19:15;99350.22;;;-7.65;71.73
75424;BME280;64005;55.160;36.002;2023-11-22T12:21:48;99355.84;;;-7.67;71.90
75424;BME280;64005;55.160;36.002;2023-11-22T12:24:28;99351.69;;;-7.69;71.58
75424;BME280;64005;55.160;36.002;2023-11-22T12:26:55;99355.66;;;-7.72;71.74
75424;BME280;64005;55.160;36.002;2023-11-22T12:29:23;99348.56;;;-7.73;71.84
75424;BME280;64005;55.160;36.002;2023-11-22T12:31:51;99356.69;;;-7.73;71.72
75424;BME280;64005;55.160;36.002;2023-11-22T12:34:27;99355.84;;;-7.73;71.62
75424;BME280;64005;55.160;36.002;2023-11-22T12:36:56;99368.72;;;-7.75;71.76
75424;BME280;64005;55.160;36.002;2023-11-22T12:39:23;99353.34;;;-7.75;71.98
75424;BME280;64005;55.160;36.002;2023-11-22T12:41:52;99369.34;;;-7.73;71.92
75424;BME280;64005;55.160;36.002;2023-11-22T12:44:20;99365.63;;;-7.72;71.42
75424;BME280;64005;55.160;36.002;2023-11-22T12:46:48;99360.41;;;-7.74;72.01
75424;BME280;64005;55.160;36.002;2023-11-22T12:49:23;99358.75;;;-7.75;71.65
75424;BME280;64005;55.160;36.002;2023-11-22T12:51:52;99367.06;;;-7.76;71.66
75424;BME280;64005;55.160;36.002;2023-11-22T12:54:19;99361.66;;;-7.76;71.42
75424;BME280;64005;55.160;36.002;2023-11-22T12:56:48;99354.59;;;-7.77;71.32
75424;BME280;64005;55.160;36.002;2023-11-22T12:59:20;99350.25;;;-7.78;71.40
75424;BME280;64005;55.160;36.002;2023-11-22T13:01:47;99347.31;;;-7.77;71.54
75424;BME280;64005;55.160;36.002;2023-11-22T13:04:14;99352.13;;;-7.79;71.26
75424;BME280;64005;55.160;36.002;2023-11-22T13:06:42;99365.19;;;-7.82;70.80
75424;BME280;64005;55.160;36.002;2023-11-22T13:09:10;99368.09;;;-7.84;71.43
75424;BME280;64005;55.160;36.002;2023-11-22T13:11:41;99360.22;;;-7.85;71.30
75424;BME280;64005;55.160;36.002;2023-11-22T13:14:09;99352.34;;;-7.87;71.25
75424;BME280;64005;55.160;36.002;2023-11-22T13:16:39;99361.47;;;-7.88;71.49
75424;BME280;64005;55.160;36.002;2023-11-22T13:19:18;99364.56;;;-7.91;71.29
75424;BME280;64005;55.160;36.002;2023-11-22T13:21:45;99356.91;;;-7.94;71.20
75424;BME280;64005;55.160;36.002;2023-11-22T13:24:14;99343.81;;;-7.97;70.96
75424;BME280;64005;55.160;36.002;2023-11-22T13:26:43;99350.47;;;-7.99;71.13
75424;BME280;64005;55.160;36.002;2023-11-22T13:29:10;99345.28;;;-8.01;71.48
75424;BME280;64005;55.160;36.002;2023-11-22T13:31:37;99349.84;;;-8.02;71.00
75424;BME280;64005;55.160;36.002;2023-11-22T13:34:05;99341.75;;;-8.02;71.13
75424;BME280;64005;55.160;36.002;2023-11-22T13:36:32;99347.16;;;-8.02;71.48
75424;BME280;64005;55.160;36.002;2023-11-22T13:38:59;99337.38;;;-8.03;71.53
75424;BME280;64005;55.160;36.002;2023-11-22T13:41:27;99331.97;;;-8.03;71.46
75424;BME280;64005;55.160;36.002;2023-11-22T13:43:54;99324.91;;;-8.04;71.26
75424;BME280;64005;55.160;36.002;2023-11-22T13:46:22;99333.03;;;-8.04;71.32
75424;BME280;64005;55.160;36.002;2023-11-22T13:48:49;99332.19;;;-8.04;71.51
75424;BME280;64005;55.160;36.002;2023-11-22T13:51:22;99333.03;;;-8.04;71.57
75424;BME280;64005;55.160;36.002;2023-11-22T13:53:50;99341.75;;;-8.02;71.70
75424;BME280;64005;55.160;36.002;2023-11-22T13:56:19;99339.03;;;-8.02;71.35
75424;BME280;64005;55.160;36.002;2023-11-22T13:58:47;99336.97;;;-7.99;71.53
75424;BME280;64005;55.160;36.002;2023-11-22T14:01:14;99338.66;;;-7.98;71.58
75424;BME280;64005;55.160;36.002;2023-11-22T14:03:47;99339.47;;;-7.98;71.64
75424;BME280;64005;55.160;36.002;2023-11-22T14:06:14;99346.75;;;-7.98;71.80
75424;BME280;64005;55.160;36.002;2023-11-22T14:08:42;99344.88;;;-7.98;71.93
75424;BME280;64005;55.160;36.002;2023-11-22T14:11:10;99343.81;;;-7.97;71.58
75424;BME280;64005;55.160;36.002;2023-11-22T14:13:37;99344.44;;;-7.95;71.82
75424;BME280;64005;55.160;36.002;2023-11-22T14:19:29;99334.28;;;-7.93;71.74
75424;BME280;64005;55.160;36.002;2023-11-22T14:21:56;99336.97;;;-7.93;71.53
75424;BME280;64005;55.160;36.002;2023-11-22T14:27:58;99344.03;;;-7.92;71.66
75424;BME280;64005;55.160;36.002;2023-11-22T14:30:25;99342.16;;;-7.91;71.55
75424;BME280;64005;55.160;36.002;2023-11-22T14:32:54;99340.50;;;-7.92;71.72
75424;BME280;64005;55.160;36.002;2023-11-22T14:35:25;99340.50;;;-7.92;71.86
75424;BME280;64005;55.160;36.002;2023-11-22T14:37:53;99355.44;;;-7.90;71.73
75424;BME280;64005;55.160;36.002;2023-11-22T14:40:20;99356.91;;;-7.87;71.80
75424;BME280;64005;55.160;36.002;2023-11-22T14:42:49;99364.78;;;-7.86;71.73
75424;BME280;64005;55.160;36.002;2023-11-22T14:45:18;99363.53;;;-7.83;71.71
75424;BME280;64005;55.160;36.002;2023-11-22T14:47:46;99358.75;;;-7.81;71.76
75424;BME280;64005;55.160;36.002;2023-11-22T14:50:13;99362.09;;;-7.79;71.95
75424;BME280;64005;55.160;36.002;2023-11-22T14:52:43;99360.81;;;-7.77;72.01
75424;BME280;64005;55.160;36.002;2023-11-22T14:55:11;99358.13;;;-7.77;71.67
75424;BME280;64005;55.160;36.002;2023-11-22T14:57:38;99367.06;;;-7.76;71.62
75424;BME280;64005;55.160;36.002;2023-11-22T15:00:07;99368.72;;;-7.75;71.52
75424;BME280;64005;55.160;36.002;2023-11-22T15:02:38;99360.63;;;-7.75;71.64